sensor_id;sensor_type;location;lat;lon;timestamp;P1;durP1;ratioP1;P2;durP2;ratioP2
36411;SDS011;22445;52.100;5.176;2022-08-03T00:00:59;5.43;;;1.27;;
36411;SDS011;22445;52.100;5.176;2022-08-03T00:03:25;4.50;;;1.50;;
36411;SDS011;22445;52.100;5.176;2022-08-03T00:05:51;9.75;;;1.88;;
36411;SDS011;22445;52.100;5.176;2022-08-03T00:08:16;3.28;;;1.30;;
36411;SDS011;22445;52.100;5.176;2022-08-03T00:10:42;5.05;;;1.70;;
36411;SDS011;22445;52.100;5.176;2022-08-03T00:13:08;4.38;;;1.65;;
36411;SDS011;22445;52.100;5.176;2022-08-03T00:15:35;2.35;;;1.10;;
36411;SDS011;22445;52.100;5.176;2022-08-03T00:18:00;4.32;;;1.42;;
36411;SDS011;22445;52.100;5.176;2022-08-03T00:20:25;4.22;;;2.00;;
36411;SDS011;22445;52.100;5.176;2022-08-03T00:22:51;4.20;;;1.60;;
36411;SDS011;22445;52.100;5.176;2022-08-03T00:25:17;4.55;;;1.30;;
36411;SDS011;22445;52.100;5.176;2022-08-03T00:27:43;4.70;;;1.67;;
36411;SDS011;22445;52.100;5.176;2022-08-03T00:30:08;4.32;;;1.67;;
36411;SDS011;22445;52.100;5.176;2022-08-03T00:32:34;3.65;;;1.50;;
36411;SDS011;22445;52.100;5.176;2022-08-03T00:34:59;5.00;;;1.40;;
36411;SDS011;22445;52.100;5.176;2022-08-03T00:37:25;3.40;;;1.67;;
36411;SDS011;22445;52.100;5.176;2022-08-03T00:39:51;3.55;;;1.38;;
36411;SDS011;22445;52.100;5.176;2022-08-03T00:42:16;4.07;;;1.58;;
36411;SDS011;22445;52.100;5.176;2022-08-03T00:44:42;3.72;;;1.70;;
36411;SDS011;22445;52.100;5.176;2022-08-03T00:47:08;3.50;;;1.70;;
36411;SDS011;22445;52.100;5.176;2022-08-03T00:49:35;3.78;;;1.58;;
36411;SDS011;22445;52.100;5.176;2022-08-03T00:52:02;3.88;;;1.23;;
36411;SDS011;22445;52.100;5.176;2022-08-03T00:54:28;5.18;;;1.88;;
36411;SDS011;22445;52.100;5.176;2022-08-03T00:56:54;5.45;;;1.83;;
36411;SDS011;22445;52.100;5.176;2022-08-03T00:59:20;4.63;;;1.63;;
36411;SDS011;22445;52.100;5.176;2022-08-03T01:01:45;4.25;;;1.88;;
36411;SDS011;22445;52.100;5.176;2022-08-03T01:04:11;3.28;;;1.88;;
36411;SDS011;22445;52.100;5.176;2022-08-03T01:11:57;7.15;;;2.28;;
36411;SDS011;22445;52.100;5.176;2022-08-03T01:20:07;6.95;;;2.33;;
36411;SDS011;22445;52.100;5.176;2022-08-03T01:30:55;7.57;;;2.10;;
36411;SDS011;22445;52.100;5.176;2022-08-03T01:33:25;4.53;;;2.20;;
36411;SDS011;22445;52.100;5.176;2022-08-03T01:35:56;5.75;;;2.03;;
36411;SDS011;22445;52.100;5.176;2022-08-03T01:38:28;5.32;;;2.47;;
36411;SDS011;22445;52.100;5.176;2022-08-03T01:41:00;5.05;;;2.22;;
36411;SDS011;22445;52.100;5.176;2022-08-03T01:43:29;5.68;;;2.83;;
36411;SDS011;22445;52.100;5.176;2022-08-03T01:45:55;7.60;;;2.40;;
36411;SDS011;22445;52.100;5.176;2022-08-03T01:48:21;4.45;;;1.92;;
36411;SDS011;22445;52.100;5.176;2022-08-03T01:50:48;6.18;;;2.85;;
36411;SDS011;22445;52.100;5.176;2022-08-03T01:53:16;6.88;;;2.65;;
36411;SDS011;22445;52.100;5.176;2022-08-03T01:55:43;4.47;;;2.15;;
36411;SDS011;22445;52.100;5.176;2022-08-03T01:58:10;10.25;;;2.85;;
36411;SDS011;22445;52.100;5.176;2022-08-03T02:00:39;8.13;;;2.95;;
36411;SDS011;22445;52.100;5.176;2022-08-03T02:03:06;8.63;;;3.03;;
36411;SDS011;22445;52.100;5.176;2022-08-03T02:05:31;6.28;;;2.72;;
36411;SDS011;22445;52.100;5.176;2022-08-03T02:07:59;8.25;;;2.60;;
36411;SDS011;22445;52.100;5.176;2022-08-03T02:10:27;6.82;;;3.08;;
36411;SDS011;22445;52.100;5.176;2022-08-03T02:12:53;7.30;;;3.13;;
36411;SDS011;22445;52.100;5.176;2022-08-03T02:15:19;9.93;;;3.47;;
36411;SDS011;22445;52.100;5.176;2022-08-03T02:17:47;5.72;;;2.95;;
36411;SDS011;22445;52.100;5.176;2022-08-03T02:20:14;5.50;;;2.50;;
36411;SDS011;22445;52.100;5.176;2022-08-03T02:22:40;8.38;;;2.90;;
36411;SDS011;22445;52.100;5.176;2022-08-03T02:25:08;10.48;;;3.20;;
36411;SDS011;22445;52.100;5.176;2022-08-03T02:27:34;6.65;;;2.78;;
36411;SDS011;22445;52.100;5.176;2022-08-03T02:30:04;9.48;;;2.88;;
36411;SDS011;22445;52.100;5.176;2022-08-03T02:32:33;6.88;;;3.33;;
36411;SDS011;22445;52.100;5.176;2022-08-03T02:35:01;7.50;;;2.85;;
36411;SDS011;22445;52.100;5.176;2022-08-03T02:37:30;12.43;;;3.33;;
36411;SDS011;22445;52.100;5.176;2022-08-03T02:39:58;7.47;;;2.47;;
36411;SDS011;22445;52.100;5.176;2022-08-03T02:42:26;9.27;;;3.03;;
36411;SDS011;22445;52.100;5.176;2022-08-03T02:44:53;7.03;;;3.08;;
36411;SDS011;22445;52.100;5.176;2022-08-03T02:47:20;16.55;;;2.95;;
36411;SDS011;22445;52.100;5.176;2022-08-03T02:49:48;13.27;;;3.70;;
36411;SDS011;22445;52.100;5.176;2022-08-03T02:52:14;7.25;;;3.00;;
36411;SDS011;22445;52.100;5.176;2022-08-03T02:54:41;8.65;;;3.03;;
36411;SDS011;22445;52.100;5.176;2022-08-03T02:57:07;10.32;;;3.65;;
36411;SDS011;22445;52.100;5.176;2022-08-03T02:59:34;8.15;;;3.20;;
36411;SDS011;22445;52.100;5.176;2022-08-03T03:02:01;7.93;;;3.08;;
36411;SDS011;22445;52.100;5.176;2022-08-03T03:04:27;6.63;;;3.30;;
36411;SDS011;22445;52.100;5.176;2022-08-03T03:06:55;7.55;;;2.85;;
36411;SDS011;22445;52.100;5.176;2022-08-03T03:09:23;9.88;;;2.95;;
36411;SDS011;22445;52.100;5.176;2022-08-03T03:11:49;13.70;;;3.00;;
36411;SDS011;22445;52.100;5.176;2022-08-03T03:14:16;6.97;;;2.92;;
36411;SDS011;22445;52.100;5.176;2022-08-03T03:16:44;8.07;;;2.97;;
36411;SDS011;22445;52.100;5.176;2022-08-03T03:19:12;10.05;;;2.92;;
36411;SDS011;22445;52.100;5.176;2022-08-03T03:21:38;7.97;;;2.95;;
36411;SDS011;22445;52.100;5.176;2022-08-03T03:24:04;7.63;;;3.00;;
36411;SDS011;22445;52.100;5.176;2022-08-03T03:26:32;9.73;;;3.10;;
36411;SDS011;22445;52.100;5.176;2022-08-03T03:28:59;9.07;;;3.17;;
36411;SDS011;22445;52.100;5.176;2022-08-03T03:31:25;10.77;;;3.03;;
36411;SDS011;22445;52.100;5.176;2022-08-03T03:33:52;9.25;;;3.22;;
36411;SDS011;22445;52.100;5.176;2022-08-03T03:36:20;9.93;;;2.97;;
36411;SDS011;22445;52.100;5.176;2022-08-03T03:38:45;10.00;;;3.15;;
36411;SDS011;22445;52.100;5.176;2022-08-03T03:41:12;8.52;;;3.40;;
36411;SDS011;22445;52.100;5.176;2022-08-03T03:43:38;6.22;;;3.10;;
36411;SDS011;22445;52.100;5.176;2022-08-03T03:46:04;10.13;;;2.88;;
36411;SDS011;22445;52.100;5.176;2022-08-03T03:48:29;8.02;;;3.20;;
36411;SDS011;22445;52.100;5.176;2022-08-03T03:50:55;9.70;;;3.00;;
36411;SDS011;22445;52.100;5.176;2022-08-03T03:53:21;8.13;;;3.10;;
36411;SDS011;22445;52.100;5.176;2022-08-03T03:55:47;8.15;;;3.03;;
36411;SDS011;22445;52.100;5.176;2022-08-03T03:58:12;7.45;;;3.50;;
36411;SDS011;22445;52.100;5.176;2022-08-03T04:00:38;11.15;;;3.28;;
36411;SDS011;22445;52.100;5.176;2022-08-03T04:03:04;11.57;;;3.45;;
36411;SDS011;22445;52.100;5.176;2022-08-03T04:05:30;7.88;;;3.47;;
36411;SDS011;22445;52.100;5.176;2022-08-03T04:08:15;7.75;;;3.22;;
36411;SDS011;22445;52.100;5.176;2022-08-03T04:13:36;13.55;;;3.80;;
36411;SDS011;22445;52.100;5.176;2022-08-03T04:16:09;8.35;;;3.47;;
36411;SDS011;22445;52.100;5.176;2022-08-03T04:18:39;7.88;;;3.13;;
36411;SDS011;22445;52.100;5.176;2022-08-03T04:21:07;9.13;;;3.55;;
36411;SDS011;22445;52.100;5.176;2022-08-03T04:23:34;9.52;;;3.25;;
36411;SDS011;22445;52.100;5.176;2022-08-03T04:26:02;12.13;;;3.70;;
36411;SDS011;22445;52.100;5.176;2022-08-03T04:28:31;10.85;;;4.18;;
36411;SDS011;22445;52.100;5.176;2022-08-03T04:30:57;8.05;;;3.40;;
36411;SDS011;22445;52.100;5.176;2022-08-03T04:33:25;10.75;;;3.60;;
36411;SDS011;22445;52.100;5.176;2022-08-03T04:35:51;9.32;;;3.22;;
36411;SDS011;22445;52.100;5.176;2022-08-03T04:38:19;9.63;;;2.90;;
36411;SDS011;22445;52.100;5.176;2022-08-03T04:40:46;8.68;;;3.75;;
36411;SDS011;22445;52.100;5.176;2022-08-03T04:43:13;11.90;;;3.55;;
36411;SDS011;22445;52.100;5.176;2022-08-03T04:45:41;13.43;;;3.42;;
36411;SDS011;22445;52.100;5.176;2022-08-03T04:48:08;9.10;;;4.05;;
36411;SDS011;22445;52.100;5.176;2022-08-03T04:50:34;10.13;;;3.53;;
36411;SDS011;22445;52.100;5.176;2022-08-03T04:53:00;10.63;;;3.22;;
36411;SDS011;22445;52.100;5.176;2022-08-03T04:55:29;9.73;;;3.78;;
36411;SDS011;22445;52.100;5.176;2022-08-03T04:57:57;10.13;;;3.42;;
36411;SDS011;22445;52.100;5.176;2022-08-03T05:00:24;9.98;;;2.90;;
36411;SDS011;22445;52.100;5.176;2022-08-03T05:02:50;11.88;;;3.90;;
36411;SDS011;22445;52.100;5.176;2022-08-03T05:05:17;11.63;;;3.28;;
36411;SDS011;22445;52.100;5.176;2022-08-03T05:07:43;7.65;;;3.42;;
36411;SDS011;22445;52.100;5.176;2022-08-03T05:10:09;8.93;;;3.60;;
36411;SDS011;22445;52.100;5.176;2022-08-03T05:12:38;14.30;;;3.88;;
36411;SDS011;22445;52.100;5.176;2022-08-03T05:15:03;11.38;;;4.15;;
36411;SDS011;22445;52.100;5.176;2022-08-03T05:17:30;11.10;;;3.60;;
36411;SDS011;22445;52.100;5.176;2022-08-03T05:19:55;12.23;;;4.10;;
36411;SDS011;22445;52.100;5.176;2022-08-03T05:22:22;7.00;;;2.75;;
36411;SDS011;22445;52.100;5.176;2022-08-03T05:24:50;11.05;;;3.47;;
36411;SDS011;22445;52.100;5.176;2022-08-03T05:27:15;8.80;;;3.33;;
36411;SDS011;22445;52.100;5.176;2022-08-03T05:29:45;9.10;;;2.85;;
36411;SDS011;22445;52.100;5.176;2022-08-03T05:32:13;8.38;;;2.97;;
36411;SDS011;22445;52.100;5.176;2022-08-03T05:34:40;10.50;;;3.50;;
36411;SDS011;22445;52.100;5.176;2022-08-03T05:37:07;7.68;;;3.38;;
36411;SDS011;22445;52.100;5.176;2022-08-03T05:39:34;8.82;;;3.67;;
36411;SDS011;22445;52.100;5.176;2022-08-03T05:42:01;13.50;;;2.95;;
36411;SDS011;22445;52.100;5.176;2022-08-03T05:44:27;10.18;;;3.20;;
36411;SDS011;22445;52.100;5.176;2022-08-03T05:46:54;9.40;;;3.50;;
36411;SDS011;22445;52.100;5.176;2022-08-03T05:49:19;8.63;;;3.63;;
36411;SDS011;22445;52.100;5.176;2022-08-03T05:51:45;8.60;;;2.95;;
36411;SDS011;22445;52.100;5.176;2022-08-03T05:54:12;9.77;;;3.10;;
36411;SDS011;22445;52.100;5.176;2022-08-03T05:56:39;12.88;;;3.60;;
36411;SDS011;22445;52.100;5.176;2022-08-03T05:59:07;7.05;;;3.20;;
36411;SDS011;22445;52.100;5.176;2022-08-03T06:01:33;11.23;;;3.13;;
36411;SDS011;22445;52.100;5.176;2022-08-03T06:04:00;8.00;;;2.95;;
36411;SDS011;22445;52.100;5.176;2022-08-03T06:06:25;12.65;;;3.25;;
36411;SDS011;22445;52.100;5.176;2022-08-03T06:08:52;11.02;;;3.53;;
36411;SDS011;22445;52.100;5.176;2022-08-03T06:11:20;11.25;;;3.20;;
36411;SDS011;22445;52.100;5.176;2022-08-03T06:13:45;12.35;;;3.33;;
36411;SDS011;22445;52.100;5.176;2022-08-03T06:16:11;12.40;;;3.67;;
36411;SDS011;22445;52.100;5.176;2022-08-03T06:18:38;8.05;;;3.08;;
36411;SDS011;22445;52.100;5.176;2022-08-03T06:21:04;10.90;;;3.33;;
36411;SDS011;22445;52.100;5.176;2022-08-03T06:23:30;14.25;;;2.80;;
36411;SDS011;22445;52.100;5.176;2022-08-03T06:25:57;9.05;;;2.75;;
36411;SDS011;22445;52.100;5.176;2022-08-03T06:28:24;10.52;;;2.80;;
36411;SDS011;22445;52.100;5.176;2022-08-03T06:30:49;14.23;;;3.42;;
36411;SDS011;22445;52.100;5.176;2022-08-03T06:33:16;10.23;;;3.45;;
36411;SDS011;22445;52.100;5.176;2022-08-03T06:35:43;8.13;;;3.13;;
36411;SDS011;22445;52.100;5.176;2022-08-03T06:38:09;14.07;;;3.92;;
36411;SDS011;22445;52.100;5.176;2022-08-03T06:40:35;12.40;;;4.00;;
36411;SDS011;22445;52.100;5.176;2022-08-03T06:43:05;8.77;;;3.25;;
36411;SDS011;22445;52.100;5.176;2022-08-03T06:45:31;11.43;;;2.80;;
36411;SDS011;22445;52.100;5.176;2022-08-03T06:48:01;12.85;;;3.40;;
36411;SDS011;22445;52.100;5.176;2022-08-03T06:50:27;11.98;;;3.08;;
36411;SDS011;22445;52.100;5.176;2022-08-03T06:52:54;15.40;;;3.05;;
36411;SDS011;22445;52.100;5.176;2022-08-03T06:55:19;10.15;;;3.35;;
36411;SDS011;22445;52.100;5.176;2022-08-03T06:57:47;11.73;;;3.38;;
36411;SDS011;22445;52.100;5.176;2022-08-03T07:00:13;12.10;;;3.50;;
36411;SDS011;22445;52.100;5.176;2022-08-03T07:02:39;13.48;;;3.60;;
36411;SDS011;22445;52.100;5.176;2022-08-03T07:05:05;12.50;;;4.07;;
36411;SDS011;22445;52.100;5.176;2022-08-03T07:07:33;12.63;;;3.08;;
36411;SDS011;22445;52.100;5.176;2022-08-03T07:09:58;10.20;;;3.30;;
36411;SDS011;22445;52.100;5.176;2022-08-03T07:12:27;8.05;;;2.60;;
36411;SDS011;22445;52.100;5.176;2022-08-03T07:14:55;9.40;;;3.22;;
36411;SDS011;22445;52.100;5.176;2022-08-03T07:17:21;11.23;;;3.55;;
36411;SDS011;22445;52.100;5.176;2022-08-03T07:19:47;11.63;;;3.30;;
36411;SDS011;22445;52.100;5.176;2022-08-03T07:22:13;11.77;;;3.55;;
36411;SDS011;22445;52.100;5.176;2022-08-03T07:24:38;11.75;;;3.70;;
36411;SDS011;22445;52.100;5.176;2022-08-03T07:27:05;8.15;;;2.95;;
36411;SDS011;22445;52.100;5.176;2022-08-03T07:29:33;11.23;;;2.88;;
36411;SDS011;22445;52.100;5.176;2022-08-03T07:31:58;9.77;;;2.90;;
36411;SDS011;22445;52.100;5.176;2022-08-03T07:34:24;11.82;;;3.55;;
36411;SDS011;22445;52.100;5.176;2022-08-03T07:36:51;9.63;;;3.00;;
36411;SDS011;22445;52.100;5.176;2022-08-03T07:39:16;8.68;;;3.00;;
36411;SDS011;22445;52.100;5.176;2022-08-03T07:41:43;10.38;;;3.17;;
36411;SDS011;22445;52.100;5.176;2022-08-03T07:44:11;7.85;;;3.15;;
36411;SDS011;22445;52.100;5.176;2022-08-03T07:46:36;16.27;;;3.50;;
36411;SDS011;22445;52.100;5.176;2022-08-03T07:49:02;10.75;;;3.10;;
36411;SDS011;22445;52.100;5.176;2022-08-03T07:51:28;12.63;;;3.63;;
36411;SDS011;22445;52.100;5.176;2022-08-03T07:53:55;8.25;;;2.95;;
36411;SDS011;22445;52.100;5.176;2022-08-03T07:56:22;13.90;;;3.10;;
36411;SDS011;22445;52.100;5.176;2022-08-03T07:58:50;8.55;;;3.08;;
36411;SDS011;22445;52.100;5.176;2022-08-03T08:01:18;8.63;;;2.70;;
36411;SDS011;22445;52.100;5.176;2022-08-03T08:03:47;10.98;;;3.03;;
36411;SDS011;22445;52.100;5.176;2022-08-03T08:06:14;10.45;;;3.22;;
36411;SDS011;22445;52.100;5.176;2022-08-03T08:08:41;8.18;;;2.90;;
36411;SDS011;22445;52.100;5.176;2022-08-03T08:11:07;11.73;;;3.58;;
36411;SDS011;22445;52.100;5.176;2022-08-03T08:13:33;20.33;;;3.80;;
36411;SDS011;22445;52.100;5.176;2022-08-03T08:16:00;12.50;;;3.08;;
36411;SDS011;22445;52.100;5.176;2022-08-03T08:18:25;9.50;;;2.92;;
36411;SDS011;22445;52.100;5.176;2022-08-03T08:20:54;7.95;;;3.33;;
36411;SDS011;22445;52.100;5.176;2022-08-03T08:23:21;11.68;;;3.53;;
36411;SDS011;22445;52.100;5.176;2022-08-03T08:25:51;8.48;;;3.35;;
36411;SDS011;22445;52.100;5.176;2022-08-03T08:28:17;13.90;;;3.05;;
36411;SDS011;22445;52.100;5.176;2022-08-03T08:30:46;10.77;;;3.22;;
36411;SDS011;22445;52.100;5.176;2022-08-03T08:33:12;12.27;;;3.75;;
36411;SDS011;22445;52.100;5.176;2022-08-03T08:35:38;12.60;;;3.35;;
36411;SDS011;22445;52.100;5.176;2022-08-03T08:38:05;8.10;;;3.03;;
36411;SDS011;22445;52.100;5.176;2022-08-03T08:40:32;13.07;;;2.58;;
36411;SDS011;22445;52.100;5.176;2022-08-03T08:42:57;10.65;;;2.90;;
36411;SDS011;22445;52.100;5.176;2022-08-03T08:45:23;9.57;;;2.40;;
36411;SDS011;22445;52.100;5.176;2022-08-03T08:47:49;10.00;;;2.55;;
36411;SDS011;22445;52.100;5.176;2022-08-03T08:50:19;11.85;;;2.58;;
36411;SDS011;22445;52.100;5.176;2022-08-03T08:52:46;8.25;;;2.80;;
36411;SDS011;22445;52.100;5.176;2022-08-03T08:55:14;10.48;;;3.20;;
36411;SDS011;22445;52.100;5.176;2022-08-03T08:57:47;11.82;;;3.08;;
36411;SDS011;22445;52.100;5.176;2022-08-03T09:00:14;9.70;;;3.15;;
36411;SDS011;22445;52.100;5.176;2022-08-03T09:02:41;9.45;;;3.35;;
36411;SDS011;22445;52.100;5.176;2022-08-03T09:05:14;11.05;;;3.00;;
36411;SDS011;22445;52.100;5.176;2022-08-03T09:07:43;10.05;;;2.30;;
36411;SDS011;22445;52.100;5.176;2022-08-03T09:10:10;10.75;;;2.58;;
36411;SDS011;22445;52.100;5.176;2022-08-03T09:12:43;13.93;;;3.20;;
36411;SDS011;22445;52.100;5.176;2022-08-03T09:15:21;12.65;;;3.65;;
36411;SDS011;22445;52.100;5.176;2022-08-03T09:17:50;12.40;;;3.17;;
36411;SDS011;22445;52.100;5.176;2022-08-03T09:20:17;11.35;;;3.17;;
36411;SDS011;22445;52.100;5.176;2022-08-03T09:22:59;11.32;;;2.85;;
36411;SDS011;22445;52.100;5.176;2022-08-03T09:25:47;10.20;;;2.92;;
36411;SDS011;22445;52.100;5.176;2022-08-03T09:28:13;13.10;;;3.30;;
36411;SDS011;22445;52.100;5.176;2022-08-03T09:30:43;12.85;;;3.22;;
36411;SDS011;22445;52.100;5.176;2022-08-03T09:33:12;9.15;;;2.38;;
36411;SDS011;22445;52.100;5.176;2022-08-03T09:35:45;8.98;;;2.65;;
36411;SDS011;22445;52.100;5.176;2022-08-03T09:38:12;13.57;;;3.03;;
36411;SDS011;22445;52.100;5.176;2022-08-03T09:40:39;14.27;;;3.75;;
36411;SDS011;22445;52.100;5.176;2022-08-03T09:43:07;11.15;;;3.08;;
36411;SDS011;22445;52.100;5.176;2022-08-03T09:45:36;6.50;;;2.75;;
36411;SDS011;22445;52.100;5.176;2022-08-03T09:50:47;13.88;;;2.90;;
36411;SDS011;22445;52.100;5.176;2022-08-03T09:53:17;13.85;;;3.40;;
36411;SDS011;22445;52.100;5.176;2022-08-03T09:55:56;6.18;;;2.33;;
36411;SDS011;22445;52.100;5.176;2022-08-03T09:58:25;14.70;;;3.58;;
36411;SDS011;22445;52.100;5.176;2022-08-03T10:03:25;9.60;;;3.15;;
36411;SDS011;22445;52.100;5.176;2022-08-03T10:05:52;9.07;;;2.67;;
36411;SDS011;22445;52.100;5.176;2022-08-03T10:08:18;7.07;;;2.40;;
36411;SDS011;22445;52.100;5.176;2022-08-03T10:10:46;9.38;;;2.28;;
36411;SDS011;22445;52.100;5.176;2022-08-03T10:13:15;8.93;;;2.50;;
36411;SDS011;22445;52.100;5.176;2022-08-03T10:15:42;7.10;;;2.20;;
36411;SDS011;22445;52.100;5.176;2022-08-03T10:18:07;10.35;;;3.08;;
36411;SDS011;22445;52.100;5.176;2022-08-03T10:20:35;9.95;;;2.03;;
36411;SDS011;22445;52.100;5.176;2022-08-03T10:23:03;8.52;;;2.33;;
36411;SDS011;22445;52.100;5.176;2022-08-03T10:25:29;8.25;;;2.58;;
36411;SDS011;22445;52.100;5.176;2022-08-03T10:27:56;9.55;;;2.40;;
36411;SDS011;22445;52.100;5.176;2022-08-03T10:30:24;6.47;;;1.90;;
36411;SDS011;22445;52.100;5.176;2022-08-03T10:32:55;7.15;;;1.92;;
36411;SDS011;22445;52.100;5.176;2022-08-03T10:35:26;7.72;;;2.33;;
36411;SDS011;22445;52.100;5.176;2022-08-03T10:37:58;7.78;;;1.98;;
36411;SDS011;22445;52.100;5.176;2022-08-03T10:40:27;10.35;;;3.03;;
36411;SDS011;22445;52.100;5.176;2022-08-03T10:42:55;7.78;;;2.42;;
36411;SDS011;22445;52.100;5.176;2022-08-03T10:45:27;7.57;;;2.35;;
36411;SDS011;22445;52.100;5.176;2022-08-03T10:47:55;6.40;;;2.33;;
36411;SDS011;22445;52.100;5.176;2022-08-03T10:50:23;10.60;;;2.35;;
36411;SDS011;22445;52.100;5.176;2022-08-03T10:52:53;10.90;;;2.40;;
36411;SDS011;22445;52.100;5.176;2022-08-03T10:55:27;7.72;;;2.08;;
36411;SDS011;22445;52.100;5.176;2022-08-03T10:58:12;7.70;;;2.35;;
36411;SDS011;22445;52.100;5.176;2022-08-03T11:00:48;7.47;;;1.70;;
36411;SDS011;22445;52.100;5.176;2022-08-03T11:03:18;7.70;;;2.10;;
36411;SDS011;22445;52.100;5.176;2022-08-03T11:05:47;6.78;;;1.60;;
36411;SDS011;22445;52.100;5.176;2022-08-03T11:08:22;7.40;;;2.45;;
36411;SDS011;22445;52.100;5.176;2022-08-03T11:16:32;8.88;;;2.30;;
36411;SDS011;22445;52.100;5.176;2022-08-03T11:19:07;6.80;;;1.63;;
36411;SDS011;22445;52.100;5.176;2022-08-03T11:21:52;5.30;;;1.88;;
36411;SDS011;22445;52.100;5.176;2022-08-03T11:35:17;7.95;;;2.08;;
36411;SDS011;22445;52.100;5.176;2022-08-03T11:43:03;6.82;;;1.83;;
36411;SDS011;22445;52.100;5.176;2022-08-03T11:45:31;4.57;;;2.00;;
36411;SDS011;22445;52.100;5.176;2022-08-03T11:47:59;7.95;;;1.80;;
36411;SDS011;22445;52.100;5.176;2022-08-03T11:50:35;5.78;;;1.88;;
36411;SDS011;22445;52.100;5.176;2022-08-03T11:53:04;7.38;;;1.50;;
36411;SDS011;22445;52.100;5.176;2022-08-03T11:55:31;5.70;;;1.80;;
36411;SDS011;22445;52.100;5.176;2022-08-03T11:57:58;10.00;;;1.98;;
36411;SDS011;22445;52.100;5.176;2022-08-03T12:00:30;4.85;;;2.13;;
36411;SDS011;22445;52.100;5.176;2022-08-03T12:03:04;6.30;;;1.88;;
36411;SDS011;22445;52.100;5.176;2022-08-03T12:05:37;8.38;;;1.80;;
36411;SDS011;22445;52.100;5.176;2022-08-03T12:08:10;5.18;;;1.90;;
36411;SDS011;22445;52.100;5.176;2022-08-03T12:10:38;6.95;;;1.80;;
36411;SDS011;22445;52.100;5.176;2022-08-03T12:13:06;7.03;;;1.88;;
36411;SDS011;22445;52.100;5.176;2022-08-03T12:15:35;5.70;;;1.67;;
36411;SDS011;22445;52.100;5.176;2022-08-03T12:18:12;7.93;;;1.60;;
36411;SDS011;22445;52.100;5.176;2022-08-03T12:20:40;7.05;;;1.80;;
36411;SDS011;22445;52.100;5.176;2022-08-03T12:23:08;5.80;;;1.75;;
36411;SDS011;22445;52.100;5.176;2022-08-03T12:25:34;7.80;;;2.58;;
36411;SDS011;22445;52.100;5.176;2022-08-03T12:28:16;8.25;;;2.10;;
36411;SDS011;22445;52.100;5.176;2022-08-03T12:30:45;9.57;;;1.92;;
36411;SDS011;22445;52.100;5.176;2022-08-03T12:33:15;5.95;;;1.80;;
36411;SDS011;22445;52.100;5.176;2022-08-03T12:35:51;4.75;;;1.98;;
36411;SDS011;22445;52.100;5.176;2022-08-03T12:38:31;6.40;;;2.22;;
36411;SDS011;22445;52.100;5.176;2022-08-03T12:40:58;4.43;;;2.30;;
36411;SDS011;22445;52.100;5.176;2022-08-03T12:43:27;4.90;;;1.85;;
36411;SDS011;22445;52.100;5.176;2022-08-03T12:51:29;3.97;;;1.85;;
36411;SDS011;22445;52.100;5.176;2022-08-03T12:53:58;6.43;;;1.80;;
36411;SDS011;22445;52.100;5.176;2022-08-03T12:56:24;4.20;;;2.05;;
36411;SDS011;22445;52.100;5.176;2022-08-03T12:58:49;7.55;;;2.45;;
36411;SDS011;22445;52.100;5.176;2022-08-03T13:01:16;3.20;;;1.85;;
36411;SDS011;22445;52.100;5.176;2022-08-03T13:03:43;5.65;;;1.70;;
36411;SDS011;22445;52.100;5.176;2022-08-03T13:06:15;4.72;;;2.38;;
36411;SDS011;22445;52.100;5.176;2022-08-03T13:08:44;6.60;;;2.40;;
36411;SDS011;22445;52.100;5.176;2022-08-03T13:11:22;5.47;;;2.03;;
36411;SDS011;22445;52.100;5.176;2022-08-03T13:13:49;7.95;;;2.33;;
36411;SDS011;22445;52.100;5.176;2022-08-03T13:16:15;5.78;;;2.40;;
36411;SDS011;22445;52.100;5.176;2022-08-03T13:18:42;7.90;;;2.47;;
36411;SDS011;22445;52.100;5.176;2022-08-03T13:21:11;3.05;;;1.63;;
36411;SDS011;22445;52.100;5.176;2022-08-03T13:23:38;9.10;;;2.90;;
36411;SDS011;22445;52.100;5.176;2022-08-03T13:26:05;4.70;;;1.60;;
36411;SDS011;22445;52.100;5.176;2022-08-03T13:28:30;4.90;;;1.73;;
36411;SDS011;22445;52.100;5.176;2022-08-03T13:30:56;4.07;;;1.70;;
36411;SDS011;22445;52.100;5.176;2022-08-03T13:33:22;5.07;;;1.60;;
36411;SDS011;22445;52.100;5.176;2022-08-03T13:35:49;2.85;;;1.35;;
36411;SDS011;22445;52.100;5.176;2022-08-03T13:38:15;6.20;;;1.85;;
36411;SDS011;22445;52.100;5.176;2022-08-03T13:40:42;5.00;;;1.95;;
36411;SDS011;22445;52.100;5.176;2022-08-03T13:43:08;6.03;;;1.85;;
36411;SDS011;22445;52.100;5.176;2022-08-03T13:45:34;3.40;;;1.70;;
36411;SDS011;22445;52.100;5.176;2022-08-03T13:48:00;5.28;;;2.00;;
36411;SDS011;22445;52.100;5.176;2022-08-03T13:50:26;5.10;;;1.60;;
36411;SDS011;22445;52.100;5.176;2022-08-03T13:52:53;3.45;;;1.48;;
36411;SDS011;22445;52.100;5.176;2022-08-03T13:55:19;4.43;;;1.63;;
36411;SDS011;22445;52.100;5.176;2022-08-03T13:57:46;4.50;;;1.10;;
36411;SDS011;22445;52.100;5.176;2022-08-03T14:00:11;3.13;;;1.27;;
36411;SDS011;22445;52.100;5.176;2022-08-03T14:02:37;3.33;;;1.13;;
36411;SDS011;22445;52.100;5.176;2022-08-03T14:05:03;2.20;;;1.08;;
36411;SDS011;22445;52.100;5.176;2022-08-03T14:07:28;6.57;;;1.30;;
36411;SDS011;22445;52.100;5.176;2022-08-03T14:09:55;2.90;;;1.25;;
36411;SDS011;22445;52.100;5.176;2022-08-03T14:12:22;5.72;;;1.25;;
36411;SDS011;22445;52.100;5.176;2022-08-03T14:14:48;5.70;;;1.55;;
36411;SDS011;22445;52.100;5.176;2022-08-03T14:17:13;2.13;;;1.10;;
36411;SDS011;22445;52.100;5.176;2022-08-03T14:19:40;2.97;;;1.05;;
36411;SDS011;22445;52.100;5.176;2022-08-03T14:22:06;5.70;;;1.40;;
36411;SDS011;22445;52.100;5.176;2022-08-03T14:24:31;2.72;;;1.23;;
36411;SDS011;22445;52.100;5.176;2022-08-03T14:26:58;5.22;;;1.45;;
36411;SDS011;22445;52.100;5.176;2022-08-03T14:29:25;3.92;;;1.23;;
36411;SDS011;22445;52.100;5.176;2022-08-03T14:31:51;4.70;;;1.50;;
36411;SDS011;22445;52.100;5.176;2022-08-03T14:34:17;3.92;;;1.35;;
36411;SDS011;22445;52.100;5.176;2022-08-03T14:36:43;4.55;;;1.10;;
36411;SDS011;22445;52.100;5.176;2022-08-03T14:39:08;6.15;;;1.88;;
36411;SDS011;22445;52.100;5.176;2022-08-03T14:41:34;6.28;;;1.23;;
36411;SDS011;22445;52.100;5.176;2022-08-03T14:44:00;2.50;;;1.17;;
36411;SDS011;22445;52.100;5.176;2022-08-03T14:46:25;3.85;;;1.20;;
36411;SDS011;22445;52.100;5.176;2022-08-03T14:48:52;1.95;;;0.95;;
36411;SDS011;22445;52.100;5.176;2022-08-03T14:51:17;2.70;;;1.27;;
36411;SDS011;22445;52.100;5.176;2022-08-03T14:53:43;4.22;;;1.00;;
36411;SDS011;22445;52.100;5.176;2022-08-03T14:56:12;4.10;;;1.30;;
36411;SDS011;22445;52.100;5.176;2022-08-03T14:58:39;5.55;;;1.38;;
36411;SDS011;22445;52.100;5.176;2022-08-03T15:01:04;4.10;;;1.30;;
36411;SDS011;22445;52.100;5.176;2022-08-03T15:03:32;3.05;;;1.13;;
36411;SDS011;22445;52.100;5.176;2022-08-03T15:05:59;3.53;;;1.17;;
36411;SDS011;22445;52.100;5.176;2022-08-03T15:08:25;3.80;;;1.30;;
36411;SDS011;22445;52.100;5.176;2022-08-03T15:10:52;2.45;;;1.20;;
36411;SDS011;22445;52.100;5.176;2022-08-03T15:13:18;3.75;;;1.20;;
36411;SDS011;22445;52.100;5.176;2022-08-03T15:15:44;4.15;;;1.17;;
36411;SDS011;22445;52.100;5.176;2022-08-03T15:18:10;3.88;;;1.10;;
36411;SDS011;22445;52.100;5.176;2022-08-03T15:20:37;3.70;;;1.15;;
36411;SDS011;22445;52.100;5.176;2022-08-03T15:23:04;3.80;;;1.17;;
36411;SDS011;22445;52.100;5.176;2022-08-03T15:25:30;2.85;;;1.08;;
36411;SDS011;22445;52.100;5.176;2022-08-03T15:27:55;2.65;;;1.25;;
36411;SDS011;22445;52.100;5.176;2022-08-03T15:30:21;4.45;;;1.08;;
36411;SDS011;22445;52.100;5.176;2022-08-03T15:32:46;3.72;;;1.30;;
36411;SDS011;22445;52.100;5.176;2022-08-03T15:35:12;3.47;;;1.05;;
36411;SDS011;22445;52.100;5.176;2022-08-03T15:37:39;3.92;;;1.55;;
36411;SDS011;22445;52.100;5.176;2022-08-03T15:40:05;5.22;;;1.13;;